sensor_id;sensor_type;location;lat;lon;timestamp;P1;durP1;ratioP1;P2;durP2;ratioP2
12880;SDS011;6508;53.786;9.996;2023-05-21T00:00:12;3.05;;;2.70;;
12880;SDS011;6508;53.786;9.996;2023-05-21T00:02:40;2.92;;;1.90;;
12880;SDS011;6508;53.786;9.996;2023-05-21T00:05:09;2.60;;;2.20;;
12880;SDS011;6508;53.786;9.996;2023-05-21T00:07:40;2.80;;;2.58;;
12880;SDS011;6508;53.786;9.996;2023-05-21T00:10:08;8.57;;;2.40;;
12880;SDS011;6508;53.786;9.996;2023-05-21T00:12:38;3.80;;;2.22;;
12880;SDS011;6508;53.786;9.996;2023-05-21T00:15:07;3.10;;;2.22;;
12880;SDS011;6508;53.786;9.996;2023-05-21T00:17:36;2.17;;;1.98;;
12880;SDS011;6508;53.786;9.996;2023-05-21T00:20:06;3.97;;;2.40;;
12880;SDS011;6508;53.786;9.996;2023-05-21T00:22:35;2.80;;;2.08;;
12880;SDS011;6508;53.786;9.996;2023-05-21T00:25:03;3.25;;;2.25;;
12880;SDS011;6508;53.786;9.996;2023-05-21T00:27:31;2.47;;;2.25;;
12880;SDS011;6508;53.786;9.996;2023-05-21T00:30:00;3.13;;;2.83;;
12880;SDS011;6508;53.786;9.996;2023-05-21T00:32:30;2.03;;;1.90;;
12880;SDS011;6508;53.786;9.996;2023-05-21T00:34:58;4.68;;;2.30;;
12880;SDS011;6508;53.786;9.996;2023-05-21T00:37:26;5.80;;;2.33;;
12880;SDS011;6508;53.786;9.996;2023-05-21T00:39:55;1.90;;;1.80;;
12880;SDS011;6508;53.786;9.996;2023-05-21T00:42:24;2.30;;;2.00;;
12880;SDS011;6508;53.786;9.996;2023-05-21T00:44:52;3.75;;;2.22;;
12880;SDS011;6508;53.786;9.996;2023-05-21T00:47:22;2.92;;;2.58;;
12880;SDS011;6508;53.786;9.996;2023-05-21T00:49:50;2.63;;;2.42;;
12880;SDS011;6508;53.786;9.996;2023-05-21T00:52:18;4.28;;;2.22;;
12880;SDS011;6508;53.786;9.996;2023-05-21T00:54:48;3.60;;;2.20;;
12880;SDS011;6508;53.786;9.996;2023-05-21T00:57:17;3.08;;;2.30;;
12880;SDS011;6508;53.786;9.996;2023-05-21T00:59:46;2.92;;;2.10;;
12880;SDS011;6508;53.786;9.996;2023-05-21T01:02:14;3.33;;;2.40;;
12880;SDS011;6508;53.786;9.996;2023-05-21T01:04:44;3.30;;;2.42;;
12880;SDS011;6508;53.786;9.996;2023-05-21T01:07:12;2.70;;;2.00;;
12880;SDS011;6508;53.786;9.996;2023-05-21T01:09:41;2.50;;;2.30;;
12880;SDS011;6508;53.786;9.996;2023-05-21T01:12:09;2.53;;;2.30;;
12880;SDS011;6508;53.786;9.996;2023-05-21T01:14:38;5.65;;;2.60;;
12880;SDS011;6508;53.786;9.996;2023-05-21T01:17:07;2.83;;;2.13;;
12880;SDS011;6508;53.786;9.996;2023-05-21T01:19:36;3.72;;;2.50;;
12880;SDS011;6508;53.786;9.996;2023-05-21T01:22:06;6.78;;;2.03;;
12880;SDS011;6508;53.786;9.996;2023-05-21T01:24:35;3.30;;;2.35;;
12880;SDS011;6508;53.786;9.996;2023-05-21T01:27:04;3.13;;;2.63;;
12880;SDS011;6508;53.786;9.996;2023-05-21T01:29:33;2.35;;;2.17;;
12880;SDS011;6508;53.786;9.996;2023-05-21T01:32:02;2.55;;;2.15;;
12880;SDS011;6508;53.786;9.996;2023-05-21T01:34:33;3.20;;;2.90;;
12880;SDS011;6508;53.786;9.996;2023-05-21T01:37:09;4.72;;;2.97;;
12880;SDS011;6508;53.786;9.996;2023-05-21T01:39:43;3.80;;;2.33;;
12880;SDS011;6508;53.786;9.996;2023-05-21T01:42:14;3.55;;;2.58;;
12880;SDS011;6508;53.786;9.996;2023-05-21T01:44:43;2.45;;;2.25;;
12880;SDS011;6508;53.786;9.996;2023-05-21T01:47:12;5.65;;;2.47;;
12880;SDS011;6508;53.786;9.996;2023-05-21T01:49:40;4.10;;;2.47;;
12880;SDS011;6508;53.786;9.996;2023-05-21T01:52:08;5.13;;;3.08;;
12880;SDS011;6508;53.786;9.996;2023-05-21T01:54:38;4.97;;;2.80;;
12880;SDS011;6508;53.786;9.996;2023-05-21T01:57:07;4.00;;;2.22;;
12880;SDS011;6508;53.786;9.996;2023-05-21T01:59:35;3.47;;;2.97;;
12880;SDS011;6508;53.786;9.996;2023-05-21T02:02:04;4.55;;;2.38;;
12880;SDS011;6508;53.786;9.996;2023-05-21T02:04:33;4.88;;;2.80;;
12880;SDS011;6508;53.786;9.996;2023-05-21T02:07:01;3.40;;;2.72;;
12880;SDS011;6508;53.786;9.996;2023-05-21T02:09:29;3.40;;;3.00;;
12880;SDS011;6508;53.786;9.996;2023-05-21T02:11:57;5.30;;;3.15;;
12880;SDS011;6508;53.786;9.996;2023-05-21T02:14:26;3.38;;;2.70;;
12880;SDS011;6508;53.786;9.996;2023-05-21T02:16:55;4.63;;;3.92;;
12880;SDS011;6508;53.786;9.996;2023-05-21T02:19:23;4.75;;;3.22;;
12880;SDS011;6508;53.786;9.996;2023-05-21T02:21:51;8.23;;;3.05;;
12880;SDS011;6508;53.786;9.996;2023-05-21T02:24:19;8.38;;;3.92;;
12880;SDS011;6508;53.786;9.996;2023-05-21T02:26:49;3.65;;;3.35;;
12880;SDS011;6508;53.786;9.996;2023-05-21T02:29:18;3.83;;;3.38;;
12880;SDS011;6508;53.786;9.996;2023-05-21T02:31:47;6.15;;;3.72;;
12880;SDS011;6508;53.786;9.996;2023-05-21T02:34:16;4.15;;;3.38;;
12880;SDS011;6508;53.786;9.996;2023-05-21T02:36:46;3.45;;;2.90;;
12880;SDS011;6508;53.786;9.996;2023-05-21T02:39:17;3.83;;;3.17;;
12880;SDS011;6508;53.786;9.996;2023-05-21T02:41:45;4.57;;;3.58;;
12880;SDS011;6508;53.786;9.996;2023-05-21T02:44:13;6.18;;;3.22;;
12880;SDS011;6508;53.786;9.996;2023-05-21T02:46:42;5.28;;;3.40;;
12880;SDS011;6508;53.786;9.996;2023-05-21T02:49:12;4.47;;;3.55;;
12880;SDS011;6508;53.786;9.996;2023-05-21T02:51:42;5.43;;;3.60;;
12880;SDS011;6508;53.786;9.996;2023-05-21T02:54:10;5.88;;;4.05;;
12880;SDS011;6508;53.786;9.996;2023-05-21T02:56:38;6.38;;;3.42;;
12880;SDS011;6508;53.786;9.996;2023-05-21T02:59:06;5.13;;;3.40;;
12880;SDS011;6508;53.786;9.996;2023-05-21T03:01:35;5.47;;;3.50;;
12880;SDS011;6508;53.786;9.996;2023-05-21T03:04:04;5.43;;;3.75;;
12880;SDS011;6508;53.786;9.996;2023-05-21T03:06:33;4.70;;;3.72;;
12880;SDS011;6508;53.786;9.996;2023-05-21T03:09:02;6.07;;;3.85;;
12880;SDS011;6508;53.786;9.996;2023-05-21T03:11:31;4.70;;;4.10;;
12880;SDS011;6508;53.786;9.996;2023-05-21T03:13:59;7.05;;;4.43;;
12880;SDS011;6508;53.786;9.996;2023-05-21T03:16:27;6.88;;;4.22;;
12880;SDS011;6508;53.786;9.996;2023-05-21T03:19:00;6.72;;;4.43;;
12880;SDS011;6508;53.786;9.996;2023-05-21T03:21:28;6.22;;;4.03;;
12880;SDS011;6508;53.786;9.996;2023-05-21T03:23:59;8.55;;;4.40;;
12880;SDS011;6508;53.786;9.996;2023-05-21T03:26:27;7.00;;;4.57;;
12880;SDS011;6508;53.786;9.996;2023-05-21T03:28:57;7.93;;;4.38;;
12880;SDS011;6508;53.786;9.996;2023-05-21T03:31:25;7.55;;;4.70;;
12880;SDS011;6508;53.786;9.996;2023-05-21T03:34:06;9.02;;;4.30;;
12880;SDS011;6508;53.786;9.996;2023-05-21T03:36:35;8.93;;;4.22;;
12880;SDS011;6508;53.786;9.996;2023-05-21T03:39:04;6.07;;;4.60;;
12880;SDS011;6508;53.786;9.996;2023-05-21T03:41:33;6.30;;;5.43;;
12880;SDS011;6508;53.786;9.996;2023-05-21T03:44:17;11.65;;;4.85;;
12880;SDS011;6508;53.786;9.996;2023-05-21T03:46:53;5.20;;;4.32;;
12880;SDS011;6508;53.786;9.996;2023-05-21T03:49:24;7.78;;;5.30;;
12880;SDS011;6508;53.786;9.996;2023-05-21T03:51:55;6.18;;;4.40;;
12880;SDS011;6508;53.786;9.996;2023-05-21T03:54:25;7.90;;;4.80;;
12880;SDS011;6508;53.786;9.996;2023-05-21T03:56:57;6.38;;;4.53;;
12880;SDS011;6508;53.786;9.996;2023-05-21T03:59:26;7.32;;;5.22;;
12880;SDS011;6508;53.786;9.996;2023-05-21T04:01:54;7.85;;;4.63;;
12880;SDS011;6508;53.786;9.996;2023-05-21T04:04:23;5.55;;;4.47;;
12880;SDS011;6508;53.786;9.996;2023-05-21T04:06:51;8.23;;;4.88;;
12880;SDS011;6508;53.786;9.996;2023-05-21T04:09:21;8.68;;;5.18;;
12880;SDS011;6508;53.786;9.996;2023-05-21T04:11:52;7.70;;;4.97;;
12880;SDS011;6508;53.786;9.996;2023-05-21T04:14:19;5.45;;;4.47;;
12880;SDS011;6508;53.786;9.996;2023-05-21T04:16:50;9.45;;;5.30;;
12880;SDS011;6508;53.786;9.996;2023-05-21T04:19:19;6.10;;;4.32;;
12880;SDS011;6508;53.786;9.996;2023-05-21T04:21:48;7.43;;;4.68;;
12880;SDS011;6508;53.786;9.996;2023-05-21T04:24:17;9.27;;;5.10;;
12880;SDS011;6508;53.786;9.996;2023-05-21T04:26:57;8.27;;;4.75;;
12880;SDS011;6508;53.786;9.996;2023-05-21T04:29:29;7.43;;;4.90;;
12880;SDS011;6508;53.786;9.996;2023-05-21T04:31:57;7.10;;;4.75;;
12880;SDS011;6508;53.786;9.996;2023-05-21T04:34:25;5.55;;;4.35;;
12880;SDS011;6508;53.786;9.996;2023-05-21T04:36:53;8.77;;;5.22;;
12880;SDS011;6508;53.786;9.996;2023-05-21T04:39:23;5.97;;;4.50;;
12880;SDS011;6508;53.786;9.996;2023-05-21T04:41:51;6.00;;;4.63;;
12880;SDS011;6508;53.786;9.996;2023-05-21T04:44:21;6.60;;;4.78;;
12880;SDS011;6508;53.786;9.996;2023-05-21T04:46:50;7.30;;;4.30;;
12880;SDS011;6508;53.786;9.996;2023-05-21T04:49:20;6.70;;;4.35;;
12880;SDS011;6508;53.786;9.996;2023-05-21T04:51:48;4.45;;;4.05;;
12880;SDS011;6508;53.786;9.996;2023-05-21T04:54:16;8.32;;;4.53;;
12880;SDS011;6508;53.786;9.996;2023-05-21T04:56:43;6.72;;;4.65;;
12880;SDS011;6508;53.786;9.996;2023-05-21T04:59:13;9.85;;;5.00;;
12880;SDS011;6508;53.786;9.996;2023-05-21T05:01:43;7.82;;;4.65;;
12880;SDS011;6508;53.786;9.996;2023-05-21T05:04:11;5.88;;;4.38;;
12880;SDS011;6508;53.786;9.996;2023-05-21T05:06:39;7.30;;;4.63;;
12880;SDS011;6508;53.786;9.996;2023-05-21T05:09:06;6.15;;;4.13;;
12880;SDS011;6508;53.786;9.996;2023-05-21T05:11:35;7.00;;;4.90;;
12880;SDS011;6508;53.786;9.996;2023-05-21T05:14:03;5.22;;;4.57;;
12880;SDS011;6508;53.786;9.996;2023-05-21T05:16:32;6.15;;;4.32;;
12880;SDS011;6508;53.786;9.996;2023-05-21T05:19:02;5.78;;;4.10;;
12880;SDS011;6508;53.786;9.996;2023-05-21T05:21:30;5.57;;;4.28;;
12880;SDS011;6508;53.786;9.996;2023-05-21T05:23:59;6.57;;;4.90;;
12880;SDS011;6508;53.786;9.996;2023-05-21T05:26:30;10.73;;;5.05;;
12880;SDS011;6508;53.786;9.996;2023-05-21T05:28:58;5.60;;;3.75;;
12880;SDS011;6508;53.786;9.996;2023-05-21T05:31:26;4.75;;;4.20;;
12880;SDS011;6508;53.786;9.996;2023-05-21T05:33:54;7.50;;;4.40;;
12880;SDS011;6508;53.786;9.996;2023-05-21T05:36:25;5.18;;;4.68;;
12880;SDS011;6508;53.786;9.996;2023-05-21T05:38:52;6.03;;;5.30;;
12880;SDS011;6508;53.786;9.996;2023-05-21T05:41:21;5.03;;;4.22;;
12880;SDS011;6508;53.786;9.996;2023-05-21T05:43:49;6.00;;;4.35;;
12880;SDS011;6508;53.786;9.996;2023-05-21T05:46:19;5.88;;;4.55;;
12880;SDS011;6508;53.786;9.996;2023-05-21T05:48:49;4.93;;;4.53;;
12880;SDS011;6508;53.786;9.996;2023-05-21T05:51:17;5.00;;;4.20;;
12880;SDS011;6508;53.786;9.996;2023-05-21T05:53:46;5.97;;;4.50;;
12880;SDS011;6508;53.786;9.996;2023-05-21T05:56:14;5.03;;;4.53;;
12880;SDS011;6508;53.786;9.996;2023-05-21T05:58:43;7.35;;;4.72;;
12880;SDS011;6508;53.786;9.996;2023-05-21T06:01:13;7.50;;;5.25;;
12880;SDS011;6508;53.786;9.996;2023-05-21T06:03:42;5.18;;;4.78;;
12880;SDS011;6508;53.786;9.996;2023-05-21T06:06:13;8.32;;;5.40;;
12880;SDS011;6508;53.786;9.996;2023-05-21T06:08:42;5.90;;;4.72;;
12880;SDS011;6508;53.786;9.996;2023-05-21T06:11:12;5.72;;;5.13;;
12880;SDS011;6508;53.786;9.996;2023-05-21T06:13:42;7.32;;;5.38;;
12880;SDS011;6508;53.786;9.996;2023-05-21T06:16:11;6.00;;;4.90;;
12880;SDS011;6508;53.786;9.996;2023-05-21T06:18:40;7.43;;;5.70;;
12880;SDS011;6508;53.786;9.996;2023-05-21T06:21:07;6.03;;;5.43;;
12880;SDS011;6508;53.786;9.996;2023-05-21T06:23:35;6.72;;;5.13;;
12880;SDS011;6508;53.786;9.996;2023-05-21T06:26:04;6.53;;;5.07;;
12880;SDS011;6508;53.786;9.996;2023-05-21T06:28:33;5.80;;;5.03;;
12880;SDS011;6508;53.786;9.996;2023-05-21T06:31:03;5.20;;;4.75;;
12880;SDS011;6508;53.786;9.996;2023-05-21T06:33:33;4.95;;;4.55;;
12880;SDS011;6508;53.786;9.996;2023-05-21T06:36:02;6.55;;;5.35;;
12880;SDS011;6508;53.786;9.996;2023-05-21T06:38:30;7.50;;;6.72;;
12880;SDS011;6508;53.786;9.996;2023-05-21T06:40:59;5.38;;;4.68;;
12880;SDS011;6508;53.786;9.996;2023-05-21T06:43:43;5.28;;;4.72;;
12880;SDS011;6508;53.786;9.996;2023-05-21T06:46:31;6.53;;;4.95;;
12880;SDS011;6508;53.786;9.996;2023-05-21T06:48:59;6.13;;;5.55;;
12880;SDS011;6508;53.786;9.996;2023-05-21T06:51:27;6.65;;;5.07;;
12880;SDS011;6508;53.786;9.996;2023-05-21T06:53:55;7.78;;;5.13;;
12880;SDS011;6508;53.786;9.996;2023-05-21T06:56:23;5.75;;;5.35;;
12880;SDS011;6508;53.786;9.996;2023-05-21T06:58:55;5.70;;;5.13;;
12880;SDS011;6508;53.786;9.996;2023-05-21T07:01:22;6.55;;;6.05;;
12880;SDS011;6508;53.786;9.996;2023-05-21T07:03:50;7.43;;;5.00;;
12880;SDS011;6508;53.786;9.996;2023-05-21T07:06:19;6.18;;;5.57;;
12880;SDS011;6508;53.786;9.996;2023-05-21T07:08:47;6.90;;;5.97;;
12880;SDS011;6508;53.786;9.996;2023-05-21T07:11:15;6.75;;;6.03;;
12880;SDS011;6508;53.786;9.996;2023-05-21T07:13:44;6.47;;;5.82;;
12880;SDS011;6508;53.786;9.996;2023-05-21T07:16:13;8.93;;;5.70;;
12880;SDS011;6508;53.786;9.996;2023-05-21T07:18:45;8.38;;;6.00;;
12880;SDS011;6508;53.786;9.996;2023-05-21T07:21:13;6.75;;;5.85;;
12880;SDS011;6508;53.786;9.996;2023-05-21T07:23:41;7.50;;;6.80;;
12880;SDS011;6508;53.786;9.996;2023-05-21T07:26:08;7.85;;;7.05;;
12880;SDS011;6508;53.786;9.996;2023-05-21T07:28:37;6.53;;;6.03;;
12880;SDS011;6508;53.786;9.996;2023-05-21T07:31:05;8.63;;;5.97;;
12880;SDS011;6508;53.786;9.996;2023-05-21T07:33:40;7.18;;;5.63;;
12880;SDS011;6508;53.786;9.996;2023-05-21T07:36:10;6.22;;;5.63;;
12880;SDS011;6508;53.786;9.996;2023-05-21T07:38:39;8.00;;;6.40;;
12880;SDS011;6508;53.786;9.996;2023-05-21T07:41:08;6.72;;;6.05;;
12880;SDS011;6508;53.786;9.996;2023-05-21T07:43:37;7.00;;;6.40;;
12880;SDS011;6508;53.786;9.996;2023-05-21T07:46:05;7.15;;;6.45;;
12880;SDS011;6508;53.786;9.996;2023-05-21T07:48:33;9.00;;;6.55;;
12880;SDS011;6508;53.786;9.996;2023-05-21T07:51:03;7.25;;;6.60;;
12880;SDS011;6508;53.786;9.996;2023-05-21T07:53:31;6.70;;;6.00;;
12880;SDS011;6508;53.786;9.996;2023-05-21T07:56:03;7.13;;;6.43;;
12880;SDS011;6508;53.786;9.996;2023-05-21T07:58:31;6.72;;;6.15;;
12880;SDS011;6508;53.786;9.996;2023-05-21T08:01:01;7.05;;;6.40;;
12880;SDS011;6508;53.786;9.996;2023-05-21T08:03:29;8.98;;;6.97;;
12880;SDS011;6508;53.786;9.996;2023-05-21T08:05:57;8.25;;;7.45;;
12880;SDS011;6508;53.786;9.996;2023-05-21T08:08:27;7.80;;;7.10;;
12880;SDS011;6508;53.786;9.996;2023-05-21T08:10:56;9.38;;;6.80;;
12880;SDS011;6508;53.786;9.996;2023-05-21T08:13:25;8.95;;;7.35;;
12880;SDS011;6508;53.786;9.996;2023-05-21T08:15:53;8.43;;;6.63;;
12880;SDS011;6508;53.786;9.996;2023-05-21T08:18:22;10.27;;;7.80;;
12880;SDS011;6508;53.786;9.996;2023-05-21T08:20:53;10.10;;;6.60;;
12880;SDS011;6508;53.786;9.996;2023-05-21T08:23:22;9.43;;;8.20;;
12880;SDS011;6508;53.786;9.996;2023-05-21T08:25:54;10.82;;;8.00;;
12880;SDS011;6508;53.786;9.996;2023-05-21T08:28:23;8.20;;;6.90;;
12880;SDS011;6508;53.786;9.996;2023-05-21T08:30:53;8.65;;;7.82;;
12880;SDS011;6508;53.786;9.996;2023-05-21T08:33:23;7.97;;;7.28;;
12880;SDS011;6508;53.786;9.996;2023-05-21T08:35:51;8.05;;;7.32;;
12880;SDS011;6508;53.786;9.996;2023-05-21T08:38:23;8.38;;;7.68;;
12880;SDS011;6508;53.786;9.996;2023-05-21T08:41:14;9.30;;;8.02;;
12880;SDS011;6508;53.786;9.996;2023-05-21T08:43:43;9.45;;;7.95;;
12880;SDS011;6508;53.786;9.996;2023-05-21T08:46:16;8.65;;;7.65;;
12880;SDS011;6508;53.786;9.996;2023-05-21T08:48:46;8.20;;;7.30;;
12880;SDS011;6508;53.786;9.996;2023-05-21T08:51:14;9.00;;;8.10;;
12880;SDS011;6508;53.786;9.996;2023-05-21T08:53:47;9.50;;;8.50;;
12880;SDS011;6508;53.786;9.996;2023-05-21T08:56:18;8.65;;;7.70;;
12880;SDS011;6508;53.786;9.996;2023-05-21T08:58:52;9.00;;;8.20;;
12880;SDS011;6508;53.786;9.996;2023-05-21T09:01:24;9.30;;;8.25;;
12880;SDS011;6508;53.786;9.996;2023-05-21T09:03:58;10.80;;;8.13;;
12880;SDS011;6508;53.786;9.996;2023-05-21T09:06:47;9.48;;;8.48;;
12880;SDS011;6508;53.786;9.996;2023-05-21T09:09:26;9.63;;;8.70;;
12880;SDS011;6508;53.786;9.996;2023-05-21T09:11:59;8.70;;;7.90;;
12880;SDS011;6508;53.786;9.996;2023-05-21T09:14:27;9.18;;;8.48;;
12880;SDS011;6508;53.786;9.996;2023-05-21T09:17:03;7.60;;;7.00;;
12880;SDS011;6508;53.786;9.996;2023-05-21T09:19:31;8.40;;;7.43;;
12880;SDS011;6508;53.786;9.996;2023-05-21T09:22:01;9.73;;;8.93;;
12880;SDS011;6508;53.786;9.996;2023-05-21T09:24:31;10.10;;;9.20;;
12880;SDS011;6508;53.786;9.996;2023-05-21T09:27:05;9.70;;;8.88;;
12880;SDS011;6508;53.786;9.996;2023-05-21T09:29:34;11.77;;;9.10;;
12880;SDS011;6508;53.786;9.996;2023-05-21T09:32:05;10.75;;;9.77;;
12880;SDS011;6508;53.786;9.996;2023-05-21T09:34:37;10.43;;;9.50;;
12880;SDS011;6508;53.786;9.996;2023-05-21T09:37:05;11.20;;;10.10;;
12880;SDS011;6508;53.786;9.996;2023-05-21T09:39:52;10.55;;;9.40;;
12880;SDS011;6508;53.786;9.996;2023-05-21T09:42:22;13.20;;;9.90;;
12880;SDS011;6508;53.786;9.996;2023-05-21T09:44:50;10.45;;;9.10;;
12880;SDS011;6508;53.786;9.996;2023-05-21T09:47:18;10.70;;;9.43;;
12880;SDS011;6508;53.786;9.996;2023-05-21T09:49:47;12.73;;;10.57;;
12880;SDS011;6508;53.786;9.996;2023-05-21T09:52:21;9.60;;;8.73;;
12880;SDS011;6508;53.786;9.996;2023-05-21T09:54:50;11.55;;;10.25;;
12880;SDS011;6508;53.786;9.996;2023-05-21T09:57:23;11.38;;;9.32;;
12880;SDS011;6508;53.786;9.996;2023-05-21T09:59:51;17.00;;;10.05;;
12880;SDS011;6508;53.786;9.996;2023-05-21T10:02:20;9.82;;;8.90;;
12880;SDS011;6508;53.786;9.996;2023-05-21T10:04:49;9.93;;;8.98;;
12880;SDS011;6508;53.786;9.996;2023-05-21T10:07:20;11.68;;;9.63;;
12880;SDS011;6508;53.786;9.996;2023-05-21T10:09:52;10.57;;;9.57;;
12880;SDS011;6508;53.786;9.996;2023-05-21T10:12:21;11.80;;;9.90;;
12880;SDS011;6508;53.786;9.996;2023-05-21T10:14:53;10.95;;;8.82;;
12880;SDS011;6508;53.786;9.996;2023-05-21T10:17:26;10.80;;;9.70;;
12880;SDS011;6508;53.786;9.996;2023-05-21T10:19:55;10.25;;;9.27;;
12880;SDS011;6508;53.786;9.996;2023-05-21T10:22:23;11.65;;;10.18;;
12880;SDS011;6508;53.786;9.996;2023-05-21T10:24:51;11.27;;;10.27;;
12880;SDS011;6508;53.786;9.996;2023-05-21T10:27:19;11.50;;;10.43;;
12880;SDS011;6508;53.786;9.996;2023-05-21T10:29:49;10.82;;;9.82;;
12880;SDS011;6508;53.786;9.996;2023-05-21T10:32:17;12.48;;;10.82;;
12880;SDS011;6508;53.786;9.996;2023-05-21T10:34:46;11.48;;;10.38;;
12880;SDS011;6508;53.786;9.996;2023-05-21T10:37:14;14.20;;;11.10;;
12880;SDS011;6508;53.786;9.996;2023-05-21T10:39:42;11.55;;;10.35;;
12880;SDS011;6508;53.786;9.996;2023-05-21T10:42:16;12.57;;;9.02;;
12880;SDS011;6508;53.786;9.996;2023-05-21T10:44:51;9.70;;;8.80;;
12880;SDS011;6508;53.786;9.996;2023-05-21T10:47:46;10.63;;;9.73;;
12880;SDS011;6508;53.786;9.996;2023-05-21T10:50:27;10.45;;;9.45;;
12880;SDS011;6508;53.786;9.996;2023-05-21T10:53:07;9.88;;;8.90;;
12880;SDS011;6508;53.786;9.996;2023-05-21T10:55:49;10.43;;;9.48;;
12880;SDS011;6508;53.786;9.996;2023-05-21T10:58:40;11.48;;;10.48;;
12880;SDS011;6508;53.786;9.996;2023-05-21T11:01:17;10.27;;;9.38;;
12880;SDS011;6508;53.786;9.996;2023-05-21T11:03:46;10.35;;;9.30;;
12880;SDS011;6508;53.786;9.996;2023-05-21T11:06:21;10.18;;;9.18;;
12880;SDS011;6508;53.786;9.996;2023-05-21T11:08:50;9.85;;;9.05;;
12880;SDS011;6508;53.786;9.996;2023-05-21T11:11:40;10.07;;;9.18;;
12880;SDS011;6508;53.786;9.996;2023-05-21T11:14:24;9.63;;;8.82;;
12880;SDS011;6508;53.786;9.996;2023-05-21T11:16:54;12.27;;;9.05;;
12880;SDS011;6508;53.786;9.996;2023-05-21T11:19:25;10.07;;;9.20;;
12880;SDS011;6508;53.786;9.996;2023-05-21T11:21:59;9.82;;;9.02;;
12880;SDS011;6508;53.786;9.996;2023-05-21T11:24:27;9.23;;;8.43;;
12880;SDS011;6508;53.786;9.996;2023-05-21T11:27:00;9.68;;;8.40;;
12880;SDS011;6508;53.786;9.996;2023-05-21T11:29:39;9.88;;;8.98;;
12880;SDS011;6508;53.786;9.996;2023-05-21T11:32:11;10.20;;;9.20;;
12880;SDS011;6508;53.786;9.996;2023-05-21T11:34:43;10.10;;;9.13;;
12880;SDS011;6508;53.786;9.996;2023-05-21T11:37:21;13.82;;;8.82;;
12880;SDS011;6508;53.786;9.996;2023-05-21T11:39:53;11.00;;;10.02;;
12880;SDS011;6508;53.786;9.996;2023-05-21T11:42:28;10.63;;;9.63;;
12880;SDS011;6508;53.786;9.996;2023-05-21T11:44:57;11.05;;;9.95;;
12880;SDS011;6508;53.786;9.996;2023-05-21T11:47:27;11.45;;;10.35;;
12880;SDS011;6508;53.786;9.996;2023-05-21T11:49:57;10.77;;;9.68;;
12880;SDS011;6508;53.786;9.996;2023-05-21T11:52:27;10.23;;;9.32;;
12880;SDS011;6508;53.786;9.996;2023-05-21T11:54:56;10.38;;;9.38;;
12880;SDS011;6508;53.786;9.996;2023-05-21T11:57:26;10.05;;;9.23;;
12880;SDS011;6508;53.786;9.996;2023-05-21T11:59:57;11.05;;;9.30;;
12880;SDS011;6508;53.786;9.996;2023-05-21T12:02:30;11.23;;;10.05;;
12880;SDS011;6508;53.786;9.996;2023-05-21T12:04:59;9.60;;;8.80;;
12880;SDS011;6508;53.786;9.996;2023-05-21T12:07:27;8.98;;;8.27;;
12880;SDS011;6508;53.786;9.996;2023-05-21T12:09:56;9.63;;;8.90;;
12880;SDS011;6508;53.786;9.996;2023-05-21T12:12:25;9.70;;;8.80;;
12880;SDS011;6508;53.786;9.996;2023-05-21T12:15:08;9.75;;;8.80;;
12880;SDS011;6508;53.786;9.996;2023-05-21T12:17:39;10.05;;;9.05;;
12880;SDS011;6508;53.786;9.996;2023-05-21T12:20:08;9.30;;;8.40;;
12880;SDS011;6508;53.786;9.996;2023-05-21T12:22:39;12.18;;;8.68;;
12880;SDS011;6508;53.786;9.996;2023-05-21T12:25:09;9.75;;;9.05;;
12880;SDS011;6508;53.786;9.996;2023-05-21T12:27:37;8.95;;;8.25;;
12880;SDS011;6508;53.786;9.996;2023-05-21T12:30:07;11.00;;;10.00;;
12880;SDS011;6508;53.786;9.996;2023-05-21T12:32:40;11.02;;;9.93;;
12880;SDS011;6508;53.786;9.996;2023-05-21T12:35:18;10.52;;;9.63;;
12880;SDS011;6508;53.786;9.996;2023-05-21T12:37:47;9.23;;;8.43;;
12880;SDS011;6508;53.786;9.996;2023-05-21T12:40:17;9.27;;;8.10;;
12880;SDS011;6508;53.786;9.996;2023-05-21T12:42:45;9.80;;;9.02;;
12880;SDS011;6508;53.786;9.996;2023-05-21T12:45:13;10.32;;;9.43;;
12880;SDS011;6508;53.786;9.996;2023-05-21T12:47:47;9.43;;;8.55;;
12880;SDS011;6508;53.786;9.996;2023-05-21T12:50:22;10.88;;;9.85;;
12880;SDS011;6508;53.786;9.996;2023-05-21T12:52:52;10.93;;;10.02;;
12880;SDS011;6508;53.786;9.996;2023-05-21T12:55:22;10.45;;;9.68;;
12880;SDS011;6508;53.786;9.996;2023-05-21T12:57:58;9.40;;;8.70;;
12880;SDS011;6508;53.786;9.996;2023-05-21T13:00:27;10.38;;;9.57;;
12880;SDS011;6508;53.786;9.996;2023-05-21T13:02:57;10.02;;;8.98;;
12880;SDS011;6508;53.786;9.996;2023-05-21T13:05:26;10.20;;;9.13;;
12880;SDS011;6508;53.786;9.996;2023-05-21T13:07:54;10.68;;;9.15;;
12880;SDS011;6508;53.786;9.996;2023-05-21T13:10:22;9.90;;;9.00;;
12880;SDS011;6508;53.786;9.996;2023-05-21T13:12:50;10.27;;;8.75;;
12880;SDS011;6508;53.786;9.996;2023-05-21T13:15:18;10.00;;;9.18;;
12880;SDS011;6508;53.786;9.996;2023-05-21T13:17:47;10.00;;;8.93;;
12880;SDS011;6508;53.786;9.996;2023-05-21T13:20:18;10.27;;;9.38;;
12880;SDS011;6508;53.786;9.996;2023-05-21T13:22:59;8.82;;;8.10;;
12880;SDS011;6508;53.786;9.996;2023-05-21T13:25:31;8.68;;;7.97;;
12880;SDS011;6508;53.786;9.996;2023-05-21T13:28:00;9.70;;;8.98;;
12880;SDS011;6508;53.786;9.996;2023-05-21T13:30:29;9.45;;;8.65;;
12880;SDS011;6508;53.786;9.996;2023-05-21T13:32:58;8.80;;;7.95;;
12880;SDS011;6508;53.786;9.996;2023-05-21T13:35:28;8.45;;;7.63;;
12880;SDS011;6508;53.786;9.996;2023-05-21T13:37:57;9.27;;;8.40;;
12880;SDS011;6508;53.786;9.996;2023-05-21T13:40:25;9.75;;;8.80;;
12880;SDS011;6508;53.786;9.996;2023-05-21T13:42:54;8.45;;;7.72;;
12880;SDS011;6508;53.786;9.996;2023-05-21T13:45:22;8.10;;;7.40;;
12880;SDS011;6508;53.786;9.996;2023-05-21T13:47:54;8.60;;;8.00;;
12880;SDS011;6508;53.786;9.996;2023-05-21T13:50:22;8.45;;;7.85;;
12880;SDS011;6508;53.786;9.996;2023-05-21T13:52:52;7.80;;;7.30;;
12880;SDS011;6508;53.786;9.996;2023-05-21T13:55:19;8.25;;;7.65;;
12880;SDS011;6508;53.786;9.996;2023-05-21T13:57:47;8.75;;;7.68;;
12880;SDS011;6508;53.786;9.996;2023-05-21T14:00:15;8.10;;;7.40;;
12880;SDS011;6508;53.786;9.996;2023-05-21T14:02:43;7.80;;;7.20;;
12880;SDS011;6508;53.786;9.996;2023-05-21T14:05:11;9.35;;;8.48;;
12880;SDS011;6508;53.786;9.996;2023-05-21T14:07:39;8.40;;;7.70;;
12880;SDS011;6508;53.786;9.996;2023-05-21T14:10:10;8.52;;;7.82;;
12880;SDS011;6508;53.786;9.996;2023-05-21T14:12:38;8.30;;;7.45;;
12880;SDS011;6508;53.786;9.996;2023-05-21T14:15:08;8.35;;;7.65;;
12880;SDS011;6508;53.786;9.996;2023-05-21T14:17:37;9.13;;;8.43;;
12880;SDS011;6508;53.786;9.996;2023-05-21T14:20:06;7.70;;;7.20;;
12880;SDS011;6508;53.786;9.996;2023-05-21T14:22:35;8.93;;;8.25;;
12880;SDS011;6508;53.786;9.996;2023-05-21T14:25:03;9.75;;;9.05;;
12880;SDS011;6508;53.786;9.996;2023-05-21T14:27:32;9.13;;;8.32;;
12880;SDS011;6508;53.786;9.996;2023-05-21T14:30:03;8.98;;;8.15;;
12880;SDS011;6508;53.786;9.996;2023-05-21T14:32:32;8.65;;;7.85;;
12880;SDS011;6508;53.786;9.996;2023-05-21T14:35:00;8.65;;;7.72;;
12880;SDS011;6508;53.786;9.996;2023-05-21T14:37:27;9.02;;;8.25;;
12880;SDS011;6508;53.786;9.996;2023-05-21T14:39:56;8.57;;;7.88;;
12880;SDS011;6508;53.786;9.996;2023-05-21T14:42:24;8.32;;;7.72;;
12880;SDS011;6508;53.786;9.996;2023-05-21T14:44:53;9.15;;;8.20;;
12880;SDS011;6508;53.786;9.996;2023-05-21T14:47:21;8.98;;;8.27;;
12880;SDS011;6508;53.786;9.996;2023-05-21T14:49:49;8.38;;;7.78;;
12880;SDS011;6508;53.786;9.996;2023-05-21T14:52:17;9.23;;;8.30;;
12880;SDS011;6508;53.786;9.996;2023-05-21T14:54:46;8.57;;;7.90;;
12880;SDS011;6508;53.786;9.996;2023-05-21T14:57:14;9.05;;;8.38;;
12880;SDS011;6508;53.786;9.996;2023-05-21T14:59:43;9.07;;;8.30;;
12880;SDS011;6508;53.786;9.996;2023-05-21T15:02:12;8.43;;;7.70;;
12880;SDS011;6508;53.786;9.996;2023-05-21T15:04:40;9.00;;;8.13;;
12880;SDS011;6508;53.786;9.996;2023-05-21T15:07:08;8.27;;;7.78;;
12880;SDS011;6508;53.786;9.996;2023-05-21T15:09:36;8.73;;;7.95;;
12880;SDS011;6508;53.786;9.996;2023-05-21T15:12:04;8.55;;;7.75;;
12880;SDS011;6508;53.786;9.996;2023-05-21T15:14:32;8.40;;;7.70;;